Time;durP1;ratioP1;P1;durP2;ratioP2;P2;SDS_P1;SDS_P2;PMS_P1;PMS_P2;Temp;Humidity;BMP_temperature;BMP_pressure;BME280_temperature;BME280_humidity;BME280_pressure;Samples;Min_cycle;Max_cycle;Signal;HPM_P1;HPM_P2
2021/10/08 05:14:22;;;;;;;16.95;7.75;;;;;;;1.28;67.66;99857.55;1855927;77;20314;-60
2021/10/08 05:16:49;;;;;;;17.57;8.75;;;;;;;1.38;67.54;99862.88;1855881;77;20868;-60
2021/10/08 05:19:16;;;;;;;15.25;8.20;;;;;;;1.52;67.40;99860.36;1856073;77;21454;-60
2021/10/08 05:21:48;;;;;;;13.53;8.08;;;;;;;1.63;66.99;99857.22;1855085;77;20919;-59
2021/10/08 05:24:14;;;;;;;25.32;9.45;;;;;;;1.76;66.65;99865.30;1855829;77;21100;-58
2021/10/08 05:26:41;;;;;;;22.10;9.25;;;;;;;1.85;66.40;99864.16;1855952;77;20915;-61
2021/10/08 05:29:08;;;;;;;16.77;8.50;;;;;;;1.94;66.12;99869.63;1856344;77;21272;-59
2021/10/08 05:31:35;;;;;;;15.35;8.33;;;;;;;1.98;65.96;99865.59;1855839;77;20927;-60
2021/10/08 05:34:02;;;;;;;20.62;9.13;;;;;;;1.99;65.77;99869.38;1856134;77;20911;-61
2021/10/08 05:36:31;;;;;;;17.12;8.10;;;;;;;2.07;65.70;99873.73;1855969;77;21892;-61
2021/10/08 05:38:59;;;;;;;21.82;8.63;;;;;;;2.16;65.51;99884.48;1856150;77;21383;-62
2021/10/08 05:41:27;;;;;;;13.50;8.13;;;;;;;2.25;65.18;99883.33;1856097;77;20931;-59
2021/10/08 05:43:55;;;;;;;16.67;8.28;;;;;;;2.33;65.00;99887.14;1855934;77;20967;-58
2021/10/08 05:46:22;;;;;;;13.68;8.25;;;;;;;2.40;64.80;99884.04;1855845;77;20915;-60
2021/10/08 05:48:50;;;;;;;13.85;8.30;;;;;;;2.50;64.49;99885.85;1855703;77;21125;-62
2021/10/08 05:51:17;;;;;;;20.10;8.25;;;;;;;2.59;64.15;99880.72;1855727;77;20959;-60
2021/10/08 05:53:44;;;;;;;15.15;7.45;;;;;;;2.65;63.77;99878.64;1856010;77;21366;-60
2021/10/08 05:56:11;;;;;;;17.73;8.25;;;;;;;2.68;63.39;99879.59;1856021;77;20876;-61
2021/10/08 05:58:38;;;;;;;17.20;7.50;;;;;;;2.73;63.44;99881.12;1855794;77;20868;-58
2021/10/08 06:01:05;;;;;;;18.15;8.03;;;;;;;2.84;63.18;99890.86;1855875;77;21898;-59
2021/10/08 06:03:32;;;;;;;13.48;7.58;;;;;;;2.92;63.05;99890.19;1855696;77;20872;-60
2021/10/08 06:05:59;;;;;;;15.65;7.28;;;;;;;3.02;62.66;99892.48;1848265;77;20853;-59
2021/10/08 06:08:28;;;;;;;14.38;7.40;;;;;;;3.11;62.29;99890.01;1844239;77;20888;-60
2021/10/08 06:10:55;;;;;;;17.48;7.83;;;;;;;3.19;62.10;99891.97;1844119;77;21021;-59
2021/10/08 06:13:24;;;;;;;16.67;7.62;;;;;;;3.29;61.94;99887.64;1844357;77;21150;-62
2021/10/08 06:15:52;;;;;;;13.38;7.87;;;;;;;3.41;61.64;99892.68;1843938;77;20907;-59
2021/10/08 06:18:18;;;;;;;17.35;7.45;;;;;;;3.50;61.58;99891.48;1843656;77;21392;-59
2021/10/08 06:20:45;;;;;;;16.32;8.58;;;;;;;3.62;61.34;99885.10;1843538;77;20963;-58
2021/10/08 06:23:14;;;;;;;18.42;7.50;;;;;;;3.74;60.89;99888.80;1843761;77;21471;-61
2021/10/08 06:25:41;;;;;;;16.87;7.58;;;;;;;3.83;60.75;99889.75;1843487;77;21064;-61
2021/10/08 06:28:08;;;;;;;16.37;7.28;;;;;;;3.92;60.46;99892.52;1843722;77;20857;-60
2021/10/08 06:30:35;;;;;;;19.15;7.78;;;;;;;4.03;60.42;99891.91;1843503;77;20980;-61
2021/10/08 06:33:02;;;;;;;19.65;7.65;;;;;;;4.15;59.92;99896.92;1843842;77;20888;-58
2021/10/08 06:35:32;;;;;;;39.53;21.85;;;;;;;4.25;59.60;99897.02;1842115;77;21379;-61
2021/10/08 06:38:00;;;;;;;27.50;17.60;;;;;;;4.35;59.19;99900.09;1815993;77;21113;-61
2021/10/08 06:40:27;;;;;;;65.83;31.00;;;;;;;4.47;58.96;99899.80;1830355;77;21015;-59
2021/10/08 06:42:55;;;;;;;23.47;11.57;;;;;;;4.56;58.68;99888.77;1834575;77;21420;-59
2021/10/08 06:45:39;;;;;;;17.80;10.05;;;;;;;4.65;58.35;99893.34;1843195;77;20888;-59
2021/10/08 06:48:06;;;;;;;20.20;8.85;;;;;;;4.74;58.20;99896.91;1824298;77;21475;-61
2021/10/08 06:50:36;;;;;;;14.30;7.10;;;;;;;4.85;57.92;99890.16;1827338;78;21814;-58
2021/10/08 06:53:03;;;;;;;18.20;7.72;;;;;;;5.00;58.15;99898.69;1829944;77;20948;-57
2021/10/08 06:55:31;;;;;;;18.77;7.10;;;;;;;5.15;57.64;99892.63;1835179;77;20849;-58
2021/10/08 06:57:59;;;;;;;13.08;8.20;;;;;;;5.29;57.14;99892.06;1810503;79;20892;-59
2021/10/08 07:00:26;;;;;;;20.37;11.03;;;;;;;5.42;56.85;99892.82;1810510;79;20978;-59
2021/10/08 07:02:55;;;;;;;12.75;7.60;;;;;;;5.54;56.62;99898.28;1841570;77;21118;-62
2021/10/08 07:05:24;;;;;;;16.17;8.30;;;;;;;5.66;56.37;99900.59;1832275;77;20897;-59
2021/10/08 07:07:51;;;;;;;11.57;7.03;;;;;;;5.80;56.14;99901.33;1839353;77;20837;-59
2021/10/08 07:10:20;;;;;;;14.33;6.78;;;;;;;5.93;56.02;99894.14;1843554;77;20888;-61
2021/10/08 07:12:47;;;;;;;17.77;6.70;;;;;;;6.10;55.83;99901.09;1820722;77;20912;-59
2021/10/08 07:15:20;;;;;;;21.77;6.35;;;;;;;6.27;55.44;99904.83;1843421;77;21103;-61
2021/10/08 07:17:50;;;;;;;14.13;6.30;;;;;;;6.42;55.05;99909.33;1843430;77;20885;-60
2021/10/08 07:20:20;;;;;;;14.35;6.42;;;;;;;6.52;54.28;99911.00;1843858;77;20988;-59
2021/10/08 07:22:46;;;;;;;24.00;9.40;;;;;;;6.57;54.01;99909.02;1841344;77;20962;-59
2021/10/08 07:25:13;;;;;;;16.42;8.90;;;;;;;6.60;53.61;99904.05;1843829;77;20877;-58
2021/10/08 07:27:42;;;;;;;13.32;7.33;;;;;;;6.65;53.63;99913.53;1843788;77;21124;-60
2021/10/08 07:30:10;;;;;;;13.32;6.87;;;;;;;6.75;53.71;99913.86;1842581;77;20900;-59
2021/10/08 07:32:37;;;;;;;14.30;6.10;;;;;;;6.88;53.77;99915.05;1838507;77;20975;-62
2021/10/08 07:35:05;;;;;;;13.60;6.55;;;;;;;7.01;53.07;99913.30;1831536;77;21526;-61
2021/10/08 07:37:32;;;;;;;11.83;5.62;;;;;;;7.11;52.94;99912.28;1839447;78;21397;-59
2021/10/08 07:39:59;;;;;;;14.28;6.00;;;;;;;7.21;52.37;99914.71;1836081;77;21122;-62
2021/10/08 07:42:26;;;;;;;10.58;5.53;;;;;;;7.31;51.72;99912.34;1843239;77;20904;-60
2021/10/08 07:44:52;;;;;;;17.95;6.58;;;;;;;7.41;51.27;99919.31;1842740;77;21386;-60
2021/10/08 07:47:19;;;;;;;17.10;5.83;;;;;;;7.52;51.64;99913.73;1842389;77;20994;-60
2021/10/08 07:49:46;;;;;;;14.33;6.45;;;;;;;7.66;51.90;99916.53;1842013;77;21094;-61
2021/10/08 07:52:14;;;;;;;12.58;5.42;;;;;;;7.81;51.28;99919.63;1839926;77;21132;-61
2021/10/08 07:54:42;;;;;;;14.70;5.90;;;;;;;7.94;50.66;99922.10;1810113;79;20866;-60
2021/10/08 07:57:08;;;;;;;14.28;5.72;;;;;;;8.02;49.74;99919.64;1815381;78;20974;-60
2021/10/08 07:59:36;;;;;;;9.73;6.25;;;;;;;8.06;49.48;99917.63;1833755;77;21308;-61
2021/10/08 08:02:05;;;;;;;13.78;6.37;;;;;;;8.11;49.61;99920.95;1842619;77;21074;-62
2021/10/08 08:04:37;;;;;;;11.57;6.30;;;;;;;8.18;49.48;99918.48;1841968;77;21135;-59
2021/10/08 08:07:05;;;;;;;9.63;5.53;;;;;;;8.29;49.47;99926.23;1853100;77;20879;-62
2021/10/08 08:09:32;;;;;;;10.10;6.05;;;;;;;8.43;49.28;99929.00;1855501;77;20824;-61
2021/10/08 08:11:59;;;;;;;16.20;5.80;;;;;;;8.52;48.78;99926.31;1855924;77;20868;-61
2021/10/08 08:14:26;;;;;;;10.70;5.37;;;;;;;8.61;48.71;99926.26;1841516;77;20955;-59
2021/10/08 08:16:52;;;;;;;9.18;5.08;;;;;;;8.73;48.30;99926.27;1839022;78;21089;-58
2021/10/08 08:19:19;;;;;;;13.18;6.00;;;;;;;8.84;48.26;99932.13;1837969;78;20967;-57
2021/10/08 08:21:47;;;;;;;12.23;5.17;;;;;;;8.97;47.77;99924.41;1837271;78;21027;-62
2021/10/08 08:24:18;;;;;;;17.57;6.00;;;;;;;9.07;47.45;99928.11;1848030;77;21097;-59
2021/10/08 08:26:46;;;;;;;9.85;5.30;;;;;;;9.11;46.91;99923.13;1843333;77;21030;-60
2021/10/08 08:29:18;;;;;;;15.72;5.95;;;;;;;9.14;46.98;99919.45;1812469;78;21209;-62
2021/10/08 08:31:46;;;;;;;18.67;5.87;;;;;;;9.20;46.59;99915.85;1826664;77;21193;-58
2021/10/08 08:34:13;;;;;;;13.25;5.90;;;;;;;9.28;46.86;99913.34;1830340;77;21064;-58
2021/10/08 08:36:40;;;;;;;11.03;4.47;;;;;;;9.38;46.99;99918.89;1852764;77;20912;-62
2021/10/08 08:39:11;;;;;;;10.20;4.47;;;;;;;9.47;46.53;99926.31;1836356;77;21092;-62
2021/10/08 08:41:39;;;;;;;13.53;4.80;;;;;;;9.62;46.24;99915.11;1855405;77;21118;-60
2021/10/08 08:44:06;;;;;;;7.42;3.50;;;;;;;9.74;45.30;99919.09;1852948;77;21514;-60
2021/10/08 08:46:34;;;;;;;19.95;6.80;;;;;;;9.81;44.99;99917.91;1855407;77;20872;-58
2021/10/08 08:49:00;;;;;;;24.87;10.18;;;;;;;9.92;44.41;99909.52;1855918;77;20914;-58
2021/10/08 08:51:28;;;;;;;20.72;10.72;;;;;;;9.96;44.35;99914.70;1834615;77;20951;-60
2021/10/08 08:54:00;;;;;;;30.20;12.78;;;;;;;10.03;44.30;99918.05;1843549;77;21121;-59
2021/10/08 08:56:27;;;;;;;27.45;12.65;;;;;;;10.14;43.49;99907.83;1835450;78;20907;-59
2021/10/08 08:59:03;;;;;;;12.73;6.08;;;;;;;10.27;43.18;99912.86;1834805;78;20915;-59
2021/10/08 09:01:33;;;;;;;12.45;6.17;;;;;;;10.38;42.62;99903.97;1812164;77;21477;-61
2021/10/08 09:04:03;;;;;;;9.08;4.50;;;;;;;10.44;41.99;99902.98;1854131;77;20997;-60
2021/10/08 09:06:39;;;;;;;11.55;5.45;;;;;;;10.50;42.01;99900.69;1835440;77;21273;-61
2021/10/08 09:09:19;;;;;;;9.57;5.03;;;;;;;10.59;41.90;99899.74;1843576;77;20916;-57
2021/10/08 09:11:51;;;;;;;15.53;5.15;;;;;;;10.69;41.85;99883.28;1837482;77;21459;-59
2021/10/08 09:14:27;;;;;;;14.43;5.17;;;;;;;10.81;41.43;99891.25;1841124;77;20955;-59
2021/10/08 09:17:17;;;;;;;12.95;5.58;;;;;;;10.86;40.87;99890.78;1836350;77;21604;-62
2021/10/08 09:19:57;;;;;;;9.25;4.22;;;;;;;10.98;41.73;99888.81;1826979;78;21094;-57
2021/10/08 09:22:41;;;;;;;11.78;6.35;;;;;;;11.16;40.53;99886.39;1810265;79;21018;-60
2021/10/08 09:25:37;;;;;;;12.35;5.08;;;;;;;11.15;41.15;99886.62;1840695;77;20955;-59
2021/10/08 09:28:10;;;;;;;9.15;3.40;;;;;;;11.28;41.27;99884.92;1843601;77;20877;-60
2021/10/08 09:30:45;;;;;;;6.85;3.87;;;;;;;11.26;39.45;99879.00;1832544;77;20963;-59
2021/10/08 09:33:14;;;;;;;;;;;;;;;11.20;40.56;99879.98;1801930;79;21298;-59
2021/10/08 09:35:42;;;;;;;6.17;3.37;;;;;;;11.26;40.03;99879.00;1809943;79;20429;-61
2021/10/08 09:38:12;;;;;;;11.78;5.72;;;;;;;11.33;39.67;99879.08;1810540;77;20925;-57
2021/10/08 09:40:51;;;;;;;14.80;8.18;;;;;;;11.40;39.28;99887.75;1774479;80;21396;-58
2021/10/08 09:43:27;;;;;;;17.95;7.72;;;;;;;11.42;38.66;99872.77;1757575;81;21467;-57
2021/10/08 09:45:57;;;;;;;13.10;5.28;;;;;;;11.46;38.99;99869.33;1757479;81;21141;-60
2021/10/08 09:48:42;;;;;;;12.50;4.25;;;;;;;11.56;39.15;99865.95;1757372;81;20959;-59
2021/10/08 09:51:11;;;;;;;10.70;4.28;;;;;;;11.68;38.97;99872.55;1757742;81;20909;-60
2021/10/08 09:53:50;;;;;;;9.30;4.85;;;;;;;11.76;38.14;99866.19;1755059;80;21563;-58
2021/10/08 09:56:37;;;;;;;12.85;4.70;;;;;;;11.77;37.67;99862.45;1772237;80;21037;-57
2021/10/08 09:59:10;;;;;;;14.80;4.37;;;;;;;11.77;37.78;99864.33;1767784;80;21115;-58
2021/10/08 10:01:38;;;;;;;15.03;4.62;;;;;;;11.77;37.99;99863.80;1785985;80;20972;-56
2021/10/08 10:04:06;;;;;;;11.78;3.60;;;;;;;11.82;38.52;99867.06;1788736;80;20949;-58
2021/10/08 10:06:32;;;;;;;10.70;3.37;;;;;;;11.90;38.35;99870.09;1788276;80;21447;-59
2021/10/08 10:09:04;;;;;;;7.80;4.25;;;;;;;11.92;38.12;99867.96;1751965;81;21137;-58
2021/10/08 10:11:28;;;;;;;6.45;3.17;;;;;;;11.96;37.44;99858.88;1780388;79;21156;-58
2021/10/08 10:13:57;;;;;;;9.20;3.10;;;;;;;11.93;37.47;99864.23;1841313;77;21473;-57
2021/10/08 10:16:27;;;;;;;7.28;3.17;;;;;;;11.91;37.80;99863.67;1836584;77;21039;-56
2021/10/08 10:18:58;;;;;;;11.28;3.80;;;;;;;11.98;36.44;99855.41;1847694;77;21011;-58
2021/10/08 10:21:28;;;;;;;5.90;3.42;;;;;;;11.98;37.04;99854.88;1843139;77;21061;-58
2021/10/08 10:23:58;;;;;;;9.78;3.60;;;;;;;12.03;36.61;99860.30;1843415;77;21800;-59
2021/10/08 10:26:29;;;;;;;10.35;3.30;;;;;;;12.09;36.95;99851.74;1840973;77;21070;-58
2021/10/08 10:28:59;;;;;;;5.05;2.85;;;;;;;12.18;36.89;99856.39;1842190;77;20956;-57
2021/10/08 10:31:28;;;;;;;4.60;2.70;;;;;;;12.21;37.06;99844.33;1843303;77;20917;-58
2021/10/08 10:34:00;;;;;;;10.58;3.20;;;;;;;12.29;38.05;99853.28;1847419;77;21495;-57
2021/10/08 10:36:30;;;;;;;11.30;4.80;;;;;;;12.42;37.86;99847.98;1839000;77;21181;-59
2021/10/08 10:39:16;;;;;;;10.53;3.60;;;;;;;12.56;37.17;99849.16;1844429;77;21038;-59
2021/10/08 10:41:44;;;;;;;7.22;3.70;;;;;;;12.67;35.56;99848.19;1834717;77;21000;-58
2021/10/08 10:44:15;;;;;;;8.78;2.90;;;;;;;12.70;35.69;99842.27;1841530;77;21440;-60
2021/10/08 10:46:47;;;;;;;5.80;3.25;;;;;;;12.72;34.77;99838.78;1847208;77;21499;-59
2021/10/08 10:52:02;;;;;;;8.28;3.17;;;;;;;12.70;35.04;99834.20;1766638;80;21114;-61
2021/10/08 10:54:51;;;;;;;18.40;7.47;;;;;;;12.70;35.22;99827.48;1771794;80;21054;-57
2021/10/08 10:57:31;;;;;;;11.88;7.22;;;;;;;12.66;35.04;99829.08;1831151;77;21046;-59
2021/10/08 11:00:30;;;;;;;9.85;4.80;;;;;;;12.50;34.00;99828.70;1847009;77;21063;-58
2021/10/08 11:03:14;;;;;;;9.43;4.00;;;;;;;12.36;35.24;99834.50;1818087;77;21756;-60
2021/10/08 11:06:08;;;;;;;10.67;3.17;;;;;;;12.48;34.82;99828.16;1829060;77;21356;-59
2021/10/08 11:08:41;;;;;;;6.03;3.10;;;;;;;12.58;35.78;99834.92;1846703;77;20882;-58
2021/10/08 11:11:15;;;;;;;7.12;3.10;;;;;;;12.69;34.50;99832.60;1815358;77;21152;-58
2021/10/08 11:13:43;;;;;;;7.53;3.12;;;;;;;12.69;34.82;99825.87;1819109;79;20895;-58
2021/10/08 11:16:11;;;;;;;5.83;3.20;;;;;;;12.74;34.28;99817.84;1833268;77;21097;-61
2021/10/08 11:18:45;;;;;;;10.72;3.52;;;;;;;12.76;34.52;99827.80;1841607;77;20861;-56
2021/10/08 11:21:39;;;;;;;7.72;3.02;;;;;;;12.82;34.39;99832.95;1837014;77;20910;-59
2021/10/08 11:24:21;;;;;;;6.75;3.02;;;;;;;12.90;33.90;99823.58;1844102;77;20969;-60
2021/10/08 11:26:59;;;;;;;5.17;3.15;;;;;;;12.97;33.94;99814.22;1838195;77;20930;-61
2021/10/08 11:32:26;;;;;;;6.70;2.95;;;;;;;13.32;34.15;99817.61;1797375;79;20979;-60
2021/10/08 11:34:54;;;;;;;12.18;3.45;;;;;;;13.52;34.07;99824.39;1795092;79;20903;-60
2021/10/08 11:37:22;;;;;;;8.95;2.80;;;;;;;13.69;34.34;99815.56;1809561;78;20899;-59
2021/10/08 11:39:52;;;;;;;4.35;2.62;;;;;;;13.88;33.89;99808.31;1738231;81;20900;-61
2021/10/08 11:42:20;;;;;;;6.08;2.62;;;;;;;13.99;33.66;99802.66;1760030;79;21126;-60
2021/10/08 11:52:28;;;;;;;6.67;2.98;;;;;;;14.16;33.11;99805.91;1871646;76;22636;-61
2021/10/08 11:55:15;;;;;;;5.60;3.27;;;;;;;14.21;33.28;99799.70;1806614;78;20915;-60
2021/10/08 11:57:56;;;;;;;4.83;2.40;;;;;;;14.32;32.84;99806.73;1791533;80;21406;-60
2021/10/08 12:00:27;;;;;;;5.75;3.05;;;;;;;14.44;32.43;99802.43;1791546;80;20860;-58
2021/10/08 12:03:07;;;;;;;6.65;3.40;;;;;;;14.54;32.66;99795.13;1791545;80;21497;-60
2021/10/08 12:05:49;;;;;;;8.03;2.90;;;;;;;14.67;32.74;99799.97;1791039;80;20958;-61
2021/10/08 12:08:34;;;;;;;6.47;3.12;;;;;;;14.81;32.85;99798.31;1790360;80;21532;-59
2021/10/08 12:11:08;;;;;;;10.90;3.20;;;;;;;14.95;32.52;99787.73;1791236;80;21121;-60
2021/10/08 12:13:39;;;;;;;5.33;3.22;;;;;;;15.01;32.42;99795.53;1791184;80;21438;-60
2021/10/08 12:16:07;;;;;;;6.33;3.22;;;;;;;15.07;32.08;99791.72;1791285;80;21461;-61
2021/10/08 12:18:34;;;;;;;11.55;3.20;;;;;;;15.16;32.25;99795.20;1791329;80;20974;-60
2021/10/08 12:21:09;;;;;;;6.05;2.70;;;;;;;15.23;31.42;99799.77;1790871;80;21009;-59
2021/10/08 12:23:36;;;;;;;4.15;2.90;;;;;;;15.25;31.55;99796.25;1791106;80;21044;-59
2021/10/08 12:26:05;;;;;;;6.08;2.75;;;;;;;15.25;32.13;99784.09;1791169;80;21512;-62
2021/10/08 12:28:33;;;;;;;3.95;2.70;;;;;;;15.32;31.79;99785.95;1791338;80;20907;-61
2021/10/08 12:31:10;;;;;;;5.87;2.50;;;;;;;15.41;31.74;99789.67;1791555;80;21362;-60
2021/10/08 12:33:40;;;;;;;6.65;2.90;;;;;;;15.43;30.89;99791.55;1791426;80;20872;-60
2021/10/08 12:36:24;;;;;;;6.53;2.70;;;;;;;15.26;31.98;99783.02;1790760;80;21114;-61
2021/10/08 12:39:10;;;;;;;6.15;2.95;;;;;;;15.14;32.10;99776.60;1790836;80;20879;-58
2021/10/08 12:41:51;;;;;;;7.03;3.12;;;;;;;15.14;31.58;99771.20;1791418;80;20935;-58
2021/10/08 12:44:24;;;;;;;6.03;3.12;;;;;;;15.21;31.96;99783.05;1790936;79;20958;-58
2021/10/08 12:47:14;;;;;;;5.83;2.50;;;;;;;15.33;32.31;99776.78;1791531;80;20844;-58
2021/10/08 12:49:59;;;;;;;7.58;2.58;;;;;;;15.32;31.45;99769.75;1791490;80;21761;-61
2021/10/08 12:52:47;;;;;;;5.70;3.15;;;;;;;15.26;31.53;99769.53;1786442;80;20927;-59
2021/10/08 12:55:26;;;;;;;8.40;4.28;;;;;;;15.22;32.00;99767.91;1785971;80;20975;-62
2021/10/08 12:58:14;;;;;;;10.93;4.83;;;;;;;15.29;32.05;99760.31;1786167;80;20927;-59
2021/10/08 13:00:48;;;;;;;8.38;5.00;;;;;;;15.29;32.09;99766.25;1786408;80;20976;-59
2021/10/08 13:03:37;;;;;;;7.72;3.70;;;;;;;15.34;32.16;99766.23;1785626;80;21112;-60
2021/10/08 13:06:13;;;;;;;11.65;3.47;;;;;;;15.41;31.99;99757.28;1781203;80;20966;-59
2021/10/08 13:08:42;;;;;;;7.78;4.45;;;;;;;15.40;31.88;99759.16;1785642;80;21225;-59
2021/10/08 13:11:13;;;;;;;11.08;4.50;;;;;;;15.44;31.95;99767.53;1755123;80;20860;-60
2021/10/08 13:13:51;;;;;;;9.83;4.22;;;;;;;15.42;31.53;99765.66;1785437;80;20864;-59
2021/10/08 13:16:27;;;;;;;4.87;3.20;;;;;;;15.47;31.16;99771.06;1785502;80;21128;-59
2021/10/08 13:18:54;;;;;;;6.65;3.22;;;;;;;15.30;30.91;99767.34;1785423;80;20966;-59
2021/10/08 13:21:21;;;;;;;6.35;3.60;;;;;;;15.07;31.73;99776.09;1785763;80;20888;-60
2021/10/08 13:23:50;;;;;;;6.58;3.30;;;;;;;15.02;32.12;99766.66;1785562;80;21451;-59
2021/10/08 13:26:17;;;;;;;9.40;4.20;;;;;;;15.04;32.18;99770.70;1785876;80;21364;-58
2021/10/08 13:28:46;;;;;;;11.15;4.08;;;;;;;15.10;31.95;99766.64;1785473;80;20947;-59
2021/10/08 13:31:12;;;;;;;6.45;4.40;;;;;;;15.15;31.96;99763.89;1785579;80;20903;-61
2021/10/08 13:33:40;;;;;;;6.95;3.40;;;;;;;15.10;32.10;99761.24;1785544;80;21308;-59
2021/10/08 13:36:08;;;;;;;8.25;3.47;;;;;;;15.11;32.37;99755.56;1785666;80;21490;-60
2021/10/08 13:38:35;;;;;;;10.05;3.45;;;;;;;15.20;32.49;99755.78;1785369;80;20939;-61
2021/10/08 13:41:02;;;;;;;5.00;3.30;;;;;;;15.31;32.22;99756.01;1785486;80;21111;-60
2021/10/08 13:43:28;;;;;;;5.42;3.45;;;;;;;15.33;31.59;99759.23;1785519;80;21390;-59
